Terminal Aerodrome Forecast
Issued by NWS Midland/Odessa, TX

Home | Current Version | Previous Version | Text Only | Print | Product List | Glossary On
Versions: 1 2 3 4 5 6 7 8 9 10 11 12 13 14 15 16 17 18 19 20 21 22 23
000
FTUS44 KMAF 030100 AAA
TAFMAF
TAF AMD
KMAF 030117Z 0301/0324 12008KT 2SM BR OVC002
      TEMPO 0301/0305 1/2SM FG
     FM030500 14008KT 1SM BR OVC002
      TEMPO 0305/0309 1/2SM FG
     FM031600 21010KT P6SM SCT040 BKN100=

USA.gov is the U.S. government's official web portal to all federal, state and local government web resources and services.